createdAt,value
2022-12-18T00:00:10.468Z,-4.80
2022-12-18T00:02:45.579Z,-4.70
2022-12-18T00:05:13.695Z,-4.70
2022-12-18T00:07:41.677Z,-4.70
2022-12-18T00:10:10.435Z,-4.60
2022-12-18T00:12:38.420Z,-4.50
2022-12-18T00:15:09.243Z,-4.50
2022-12-18T00:17:37.373Z,-4.50
2022-12-18T00:20:06.091Z,-4.30
2022-12-18T00:22:34.186Z,-4.30
2022-12-18T00:25:02.170Z,-4.20
2022-12-18T00:27:30.187Z,-4.20
2022-12-18T00:29:58.143Z,-4.10
2022-12-18T00:32:27.723Z,-4.10
2022-12-18T00:34:55.914Z,-4.10
2022-12-18T00:37:23.901Z,-4.00
2022-12-18T00:39:52.689Z,-4.10
2022-12-18T00:42:39.216Z,-4.10
2022-12-18T00:45:12.705Z,-4.00
2022-12-18T00:47:42.700Z,-4.00
2022-12-18T00:50:11.634Z,-4.00
2022-12-18T00:52:40.072Z,-4.10
2022-12-18T00:55:09.135Z,-4.10
2022-12-18T00:57:37.148Z,-4.10
2022-12-18T01:00:06.803Z,-4.10
2022-12-18T01:02:36.704Z,-4.10
2022-12-18T01:05:07.296Z,-4.20
2022-12-18T01:07:35.362Z,-4.20
2022-12-18T01:10:05.949Z,-4.20
2022-12-18T01:12:34.198Z,-4.10
2022-12-18T01:15:02.593Z,-4.10
2022-12-18T01:17:30.603Z,-4.10
2022-12-18T01:19:58.618Z,-4.20
2022-12-18T01:22:28.663Z,-4.20
2022-12-18T01:24:56.683Z,-4.20
2022-12-18T01:27:24.725Z,-4.20
2022-12-18T01:29:53.722Z,-4.10
2022-12-18T01:32:21.908Z,-4.20
2022-12-18T01:34:51.786Z,-4.20
2022-12-18T01:37:20.602Z,-4.20
2022-12-18T01:39:50.907Z,-4.20
2022-12-18T01:42:19.521Z,-4.20
2022-12-18T01:45:02.709Z,-4.20
2022-12-18T01:47:40.520Z,-4.20
2022-12-18T01:50:12.638Z,-4.30
2022-12-18T01:52:42.840Z,-4.30
2022-12-18T01:55:14.378Z,-4.30
2022-12-18T01:57:43.270Z,-4.20
2022-12-18T02:00:16.032Z,-4.20
2022-12-18T02:02:46.080Z,-4.30
2022-12-18T02:05:18.311Z,-4.30
2022-12-18T02:07:59.602Z,-4.30
2022-12-18T02:10:32.903Z,-4.30
2022-12-18T02:13:10.468Z,-4.30
2022-12-18T02:15:45.978Z,-4.30
2022-12-18T02:18:21.678Z,-4.20
2022-12-18T02:20:56.196Z,-4.10
2022-12-18T02:23:42.337Z,-4.20
2022-12-18T02:26:21.889Z,-4.20
2022-12-18T02:28:57.209Z,-4.10
2022-12-18T02:31:29.119Z,-4.20
2022-12-18T02:33:59.917Z,-4.10
2022-12-18T02:36:30.743Z,-4.20
2022-12-18T02:39:00.255Z,-4.30
2022-12-18T02:41:31.587Z,-4.20
2022-12-18T02:44:02.553Z,-4.20
2022-12-18T02:46:36.443Z,-4.30
2022-12-18T02:49:22.820Z,-4.20
2022-12-18T02:51:55.716Z,-4.10
2022-12-18T02:54:44.692Z,-4.10
2022-12-18T02:57:22.109Z,-4.10
2022-12-18T02:59:58.796Z,-4.00
2022-12-18T03:02:35.590Z,-3.90
2022-12-18T03:05:09.778Z,-3.90
2022-12-18T03:07:41.526Z,-3.90
2022-12-18T03:10:18.803Z,-4.00
2022-12-18T03:12:53.688Z,-4.10
2022-12-18T03:15:29.551Z,-4.00
2022-12-18T03:18:08.968Z,-3.90
2022-12-18T03:20:40.064Z,-3.90
2022-12-18T03:23:14.430Z,-4.00
2022-12-18T03:25:51.019Z,-3.90
2022-12-18T03:28:23.495Z,-4.00
2022-12-18T03:31:01.138Z,-3.90
2022-12-18T03:33:36.915Z,-3.90
2022-12-18T03:36:05.673Z,-3.90
2022-12-18T03:38:34.960Z,-3.80
2022-12-18T03:41:09.956Z,-3.90
2022-12-18T03:44:00.141Z,-3.80
2022-12-18T03:46:35.100Z,-3.90
2022-12-18T03:49:10.910Z,-3.80
2022-12-18T03:51:45.403Z,-3.80
2022-12-18T03:54:15.058Z,-3.80
2022-12-18T03:56:58.290Z,-3.80
2022-12-18T03:59:29.982Z,-3.90
2022-12-18T04:02:01.355Z,-3.80
2022-12-18T04:04:30.689Z,-3.80
2022-12-18T04:07:02.580Z,-3.70
2022-12-18T04:09:33.987Z,-3.70
2022-12-18T04:12:02.168Z,-3.70
2022-12-18T04:14:36.459Z,-3.60
2022-12-18T04:17:05.754Z,-3.60
2022-12-18T04:19:35.015Z,-3.60
2022-12-18T04:22:04.544Z,-3.70
2022-12-18T04:24:40.986Z,-3.70
2022-12-18T04:27:16.171Z,-3.70
2022-12-18T04:29:50.231Z,-3.70
2022-12-18T04:32:20.264Z,-3.70
2022-12-18T04:34:49.808Z,-3.60
2022-12-18T04:37:18.843Z,-3.60
2022-12-18T04:39:48.238Z,-3.70
2022-12-18T04:42:23.452Z,-3.70
2022-12-18T04:44:52.743Z,-3.70
2022-12-18T04:47:20.748Z,-3.70
2022-12-18T04:49:48.758Z,-3.70
2022-12-18T04:52:17.012Z,-3.80
2022-12-18T04:54:44.963Z,-3.70
2022-12-18T04:57:13.255Z,-3.70
2022-12-18T04:59:42.039Z,-3.70
2022-12-18T05:02:11.590Z,-3.80
2022-12-18T05:04:39.983Z,-3.80
2022-12-18T05:07:07.970Z,-3.80
2022-12-18T05:09:35.927Z,-3.80
2022-12-18T05:12:03.994Z,-3.70
2022-12-18T05:14:31.987Z,-3.70
2022-12-18T05:17:01.197Z,-3.80
2022-12-18T05:19:30.783Z,-3.80
2022-12-18T05:21:59.016Z,-3.80
2022-12-18T05:24:26.947Z,-3.70
2022-12-18T05:26:54.947Z,-3.80
2022-12-18T05:29:23.329Z,-3.80
2022-12-18T05:31:51.390Z,-3.90
2022-12-18T05:34:19.508Z,-3.80
2022-12-18T05:36:49.272Z,-3.80
2022-12-18T05:39:17.311Z,-3.80
2022-12-18T05:41:45.301Z,-3.80
2022-12-18T05:44:13.424Z,-3.80
2022-12-18T05:46:41.481Z,-3.70
2022-12-18T05:49:10.180Z,-3.70
2022-12-18T05:51:38.441Z,-3.60
2022-12-18T05:54:08.719Z,-3.60
2022-12-18T05:56:36.674Z,-3.60
2022-12-18T05:59:04.733Z,-3.60
2022-12-18T06:04:17.159Z,-3.60
2022-12-18T06:06:45.235Z,-3.70
2022-12-18T06:09:14.908Z,-3.60
2022-12-18T06:11:42.884Z,-3.60
2022-12-18T06:14:11.770Z,-3.70
2022-12-18T06:16:39.927Z,-3.70
2022-12-18T06:19:08.400Z,-3.70
2022-12-18T06:21:36.416Z,-3.70
2022-12-18T06:24:04.461Z,-3.80
2022-12-18T06:26:33.846Z,-3.80
2022-12-18T06:29:02.102Z,-3.80
2022-12-18T06:31:30.291Z,-3.70
2022-12-18T06:33:58.841Z,-3.70
2022-12-18T06:36:26.875Z,-3.80
2022-12-18T06:38:58.829Z,-3.70
2022-12-18T06:41:26.933Z,-3.70
2022-12-18T06:43:59.775Z,-3.60
2022-12-18T06:46:28.145Z,-3.60
2022-12-18T06:48:56.229Z,-3.60
2022-12-18T06:51:26.244Z,-3.60
2022-12-18T06:53:54.353Z,-3.60
2022-12-18T06:56:22.380Z,-3.70
2022-12-18T06:58:53.388Z,-3.60
2022-12-18T07:01:23.989Z,-3.60
2022-12-18T07:03:55.538Z,-3.60
2022-12-18T07:06:25.506Z,-3.60
2022-12-18T07:08:55.291Z,-3.60
2022-12-18T07:11:23.654Z,-3.60
2022-12-18T07:13:51.929Z,-3.40
2022-12-18T07:16:25.659Z,-3.50
2022-12-18T07:18:54.254Z,-3.50
2022-12-18T07:21:23.647Z,-3.50
2022-12-18T07:23:51.919Z,-3.40
2022-12-18T07:26:21.815Z,-3.40
2022-12-18T07:28:50.308Z,-3.40
2022-12-18T07:31:20.268Z,-3.30
2022-12-18T07:33:51.837Z,-3.30
2022-12-18T07:36:20.944Z,-3.30
2022-12-18T07:38:50.003Z,-3.40
2022-12-18T07:41:19.519Z,-3.20
2022-12-18T07:43:47.760Z,-3.30
2022-12-18T07:46:16.976Z,-3.30
2022-12-18T07:48:49.455Z,-3.20
2022-12-18T07:51:20.176Z,-3.20
2022-12-18T07:53:49.449Z,-3.00
2022-12-18T07:56:29.993Z,-2.40
2022-12-18T07:58:59.431Z,-2.40
2022-12-18T08:01:27.861Z,-2.30
2022-12-18T08:03:56.210Z,-2.30
2022-12-18T08:06:25.516Z,-1.90
2022-12-18T08:08:54.883Z,-1.80
2022-12-18T08:11:23.674Z,-1.60
2022-12-18T08:13:51.964Z,-1.50
2022-12-18T08:16:20.831Z,-1.10
2022-12-18T08:18:49.566Z,-1.00
2022-12-18T08:21:21.872Z,-0.80
2022-12-18T08:23:52.084Z,-0.90
2022-12-18T08:26:20.994Z,-0.70
2022-12-18T08:28:49.341Z,-0.90
2022-12-18T08:31:18.557Z,-1.50
2022-12-18T08:33:46.666Z,-1.70
2022-12-18T08:36:14.959Z,-2.00
2022-12-18T08:38:43.014Z,-2.00
2022-12-18T08:41:14.403Z,-1.90
2022-12-18T08:44:00.344Z,-1.70
2022-12-18T08:46:33.165Z,-1.50
2022-12-18T08:49:01.263Z,-1.10
2022-12-18T08:51:29.459Z,-0.40
2022-12-18T08:53:57.567Z,-0.30
2022-12-18T08:56:26.980Z,-0.50
2022-12-18T08:58:55.283Z,-0.60
2022-12-18T09:01:24.134Z,-0.30
2022-12-18T09:03:52.866Z,-0.80
2022-12-18T09:06:23.017Z,-0.90
2022-12-18T09:08:51.380Z,-1.00
2022-12-18T09:11:23.596Z,-1.10
2022-12-18T09:13:54.746Z,-1.10
2022-12-18T09:16:27.393Z,-1.10
2022-12-18T09:19:01.177Z,-1.00
2022-12-18T09:21:31.134Z,-0.80
2022-12-18T09:24:00.383Z,-0.50
2022-12-18T09:26:29.183Z,-0.30
2022-12-18T09:28:58.696Z,-0.30
2022-12-18T09:31:27.241Z,0.00
2022-12-18T09:33:57.132Z,0.00
2022-12-18T09:36:25.128Z,-0.10
2022-12-18T09:38:54.065Z,-0.30
2022-12-18T09:41:35.867Z,-0.40
2022-12-18T09:44:12.684Z,-0.30
2022-12-18T09:46:45.603Z,-0.30
2022-12-18T09:49:17.891Z,-0.40
2022-12-18T09:51:49.516Z,-0.60
2022-12-18T09:54:23.143Z,-0.60
2022-12-18T09:56:51.184Z,-0.70
2022-12-18T09:59:25.885Z,-0.60
2022-12-18T10:01:53.997Z,-0.50
2022-12-18T10:04:22.172Z,-0.50
2022-12-18T10:06:56.930Z,-0.50
2022-12-18T10:09:33.012Z,-0.50
2022-12-18T10:12:08.514Z,-0.50
2022-12-18T10:14:48.113Z,-0.40
2022-12-18T10:17:26.508Z,-0.30
2022-12-18T10:20:01.578Z,-0.30
2022-12-18T10:22:41.810Z,-0.20
2022-12-18T10:25:20.690Z,-0.10
2022-12-18T10:27:49.191Z,0.00
2022-12-18T10:30:20.965Z,0.10
2022-12-18T10:32:49.138Z,0.20
2022-12-18T10:35:21.692Z,0.20
2022-12-18T10:38:06.608Z,0.20
2022-12-18T10:40:38.165Z,-0.10
2022-12-18T10:43:12.106Z,0.00
2022-12-18T10:45:41.678Z,0.00
2022-12-18T10:48:21.231Z,-0.10
2022-12-18T10:53:42.149Z,-0.10
2022-12-18T10:56:11.438Z,0.10
2022-12-18T10:58:41.228Z,0.20
2022-12-18T11:01:13.043Z,0.20
2022-12-18T11:03:43.326Z,0.20
2022-12-18T11:06:13.265Z,0.20
2022-12-18T11:08:43.459Z,0.10
2022-12-18T11:11:21.076Z,0.20
2022-12-18T11:13:57.256Z,0.40
2022-12-18T11:16:26.919Z,0.30
2022-12-18T11:18:55.308Z,0.20
2022-12-18T11:21:23.356Z,0.20
2022-12-18T11:23:53.388Z,0.20
2022-12-18T11:26:22.706Z,0.10
2022-12-18T11:28:54.132Z,0.10
2022-12-18T11:31:28.356Z,0.10
2022-12-18T11:34:28.084Z,0.10
2022-12-18T11:36:53.102Z,0.10
2022-12-18T11:39:28.381Z,-0.10
2022-12-18T11:42:13.376Z,-0.20
2022-12-18T11:44:48.878Z,-0.20
2022-12-18T11:47:26.565Z,-0.20
2022-12-18T11:49:57.901Z,-0.20
2022-12-18T11:52:30.101Z,-0.20
2022-12-18T11:55:01.807Z,-0.10
2022-12-18T11:57:37.676Z,-0.10
2022-12-18T12:00:13.206Z,-0.10
2022-12-18T12:03:08.940Z,-0.10
2022-12-18T12:05:48.757Z,-0.10
2022-12-18T12:08:22.957Z,-0.10
2022-12-18T12:10:59.844Z,-0.10
2022-12-18T12:13:42.997Z,0.00
2022-12-18T12:16:18.038Z,0.00
2022-12-18T12:19:03.462Z,0.00
2022-12-18T12:21:39.953Z,0.00
2022-12-18T12:24:21.223Z,0.00
2022-12-18T12:27:00.613Z,0.00
2022-12-18T12:29:40.207Z,0.00
2022-12-18T12:32:19.865Z,0.00
2022-12-18T12:35:00.968Z,0.00
2022-12-18T12:37:41.027Z,0.00
2022-12-18T12:40:40.950Z,0.00
2022-12-18T12:43:14.600Z,0.00
2022-12-18T12:45:48.890Z,0.00
2022-12-18T12:48:25.186Z,0.00
2022-12-18T12:50:55.468Z,0.00
2022-12-18T12:53:28.824Z,0.00
2022-12-18T12:55:58.163Z,0.00
2022-12-18T12:58:34.147Z,0.00
2022-12-18T13:01:11.759Z,0.00
2022-12-18T13:03:49.377Z,0.00
2022-12-18T13:06:31.330Z,0.10
2022-12-18T13:09:01.404Z,0.00
2022-12-18T13:13:46.831Z,0.00
2022-12-18T13:14:47.043Z,0.00
2022-12-18T13:17:31.843Z,0.00
2022-12-18T13:20:10.043Z,0.00
2022-12-18T13:22:42.690Z,0.00
2022-12-18T13:25:35.033Z,0.00
2022-12-18T13:28:10.140Z,0.00
2022-12-18T13:30:58.644Z,0.00
2022-12-18T13:36:32.660Z,0.00
2022-12-18T13:39:35.529Z,0.00
2022-12-18T13:42:58.843Z,0.00
2022-12-18T13:45:47.983Z,0.00
2022-12-18T13:48:22.622Z,0.00
2022-12-18T13:50:53.895Z,0.00
2022-12-18T13:53:26.744Z,0.00
2022-12-18T13:55:57.161Z,0.00
2022-12-18T13:58:25.187Z,0.00
2022-12-18T14:00:53.322Z,0.00
2022-12-18T14:03:24.985Z,-0.10
2022-12-18T14:05:58.622Z,-0.10
2022-12-18T14:08:34.086Z,-0.10
2022-12-18T14:11:05.580Z,-0.10
2022-12-18T14:13:37.247Z,-0.20
2022-12-18T14:16:08.160Z,-0.20
2022-12-18T14:18:44.900Z,-0.20
2022-12-18T14:21:22.065Z,-0.30
2022-12-18T14:23:50.616Z,-0.30
2022-12-18T14:26:32.451Z,-0.30
2022-12-18T14:29:02.347Z,-0.30
2022-12-18T14:31:32.526Z,-0.30
2022-12-18T14:34:00.561Z,-0.30
2022-12-18T14:36:30.232Z,-0.30
2022-12-18T14:39:00.551Z,-0.30
2022-12-18T14:41:30.351Z,-0.30
2022-12-18T14:44:08.092Z,-0.30
2022-12-18T14:46:38.216Z,-0.30
2022-12-18T14:49:20.016Z,-0.30
2022-12-18T14:51:51.143Z,-0.30
2022-12-18T14:54:21.323Z,-0.30
2022-12-18T14:56:52.951Z,-0.30
2022-12-18T14:59:26.418Z,-0.30
2022-12-18T15:02:01.984Z,-0.30
2022-12-18T15:04:36.937Z,-0.30
2022-12-18T15:07:09.185Z,-0.30
2022-12-18T15:09:37.247Z,-0.40
2022-12-18T15:12:28.596Z,-0.40
2022-12-18T15:14:56.564Z,-0.40
2022-12-18T15:17:26.768Z,-0.40
2022-12-18T15:20:00.788Z,-0.50
2022-12-18T15:22:30.434Z,-0.50
2022-12-18T15:24:59.933Z,-0.50
2022-12-18T15:27:32.380Z,-0.50
2022-12-18T15:30:18.982Z,-0.60
2022-12-18T15:32:47.575Z,-0.60
2022-12-18T15:35:21.345Z,-0.60
2022-12-18T15:37:50.019Z,-0.60
2022-12-18T15:40:20.045Z,-0.60
2022-12-18T15:43:08.119Z,-0.60
2022-12-18T15:45:36.444Z,-0.70
2022-12-18T15:48:19.921Z,-0.70
2022-12-18T15:50:48.122Z,-0.70
2022-12-18T15:53:16.233Z,-0.70
2022-12-18T15:56:01.969Z,-0.70
2022-12-18T15:58:33.772Z,-0.70
2022-12-18T16:01:02.326Z,-0.70
2022-12-18T16:03:30.544Z,-0.70
2022-12-18T16:06:01.212Z,-0.70
2022-12-18T16:08:30.808Z,-0.70
2022-12-18T16:10:59.881Z,-0.70
2022-12-18T16:13:27.919Z,-0.70
2022-12-18T16:15:57.327Z,-0.70
2022-12-18T16:18:25.726Z,-0.80
2022-12-18T16:20:53.740Z,-0.80
2022-12-18T16:23:21.809Z,-0.80
2022-12-18T16:25:49.753Z,-0.80
2022-12-18T16:28:17.755Z,-0.80
2022-12-18T16:30:45.840Z,-0.80
2022-12-18T16:33:15.273Z,-0.80
2022-12-18T16:35:43.272Z,-0.80
2022-12-18T16:38:11.227Z,-0.80
2022-12-18T16:41:00.798Z,-0.80
2022-12-18T16:43:30.095Z,-0.80
2022-12-18T16:46:01.130Z,-0.80
2022-12-18T16:48:30.552Z,-0.80
2022-12-18T16:51:03.903Z,-0.80
2022-12-18T16:53:31.904Z,-0.80
2022-12-18T16:56:01.566Z,-0.80
2022-12-18T16:58:29.541Z,-0.80
2022-12-18T17:00:57.541Z,-0.80
2022-12-18T17:03:25.542Z,-0.80
2022-12-18T17:05:55.827Z,-0.80
2022-12-18T17:08:23.815Z,-0.80
2022-12-18T17:10:51.780Z,-0.80
2022-12-18T17:13:25.439Z,-0.80
2022-12-18T17:15:53.874Z,-0.70
2022-12-18T17:18:22.451Z,-0.70
2022-12-18T17:20:50.435Z,-0.70
2022-12-18T17:23:19.752Z,-0.70
2022-12-18T17:25:47.688Z,-0.70
2022-12-18T17:28:16.360Z,-0.70
2022-12-18T17:30:44.351Z,-0.70
2022-12-18T17:33:12.360Z,-0.70
2022-12-18T17:35:40.336Z,-0.70
2022-12-18T17:38:09.079Z,-0.70
2022-12-18T17:40:45.933Z,-0.70
2022-12-18T17:43:14.453Z,-0.70
2022-12-18T17:45:42.459Z,-0.70
2022-12-18T17:48:10.904Z,-0.70
2022-12-18T17:50:39.440Z,-0.80
2022-12-18T17:53:07.368Z,-0.70
2022-12-18T17:55:35.355Z,-0.80
2022-12-18T17:58:04.845Z,-0.70
2022-12-18T18:00:32.847Z,-0.80
2022-12-18T18:03:00.944Z,-0.80
2022-12-18T18:05:29.062Z,-0.80
2022-12-18T18:07:57.105Z,-0.80
2022-12-18T18:10:29.935Z,-0.80
2022-12-18T18:13:16.843Z,-0.80
2022-12-18T18:15:58.055Z,-0.80
2022-12-18T18:18:26.222Z,-0.80
2022-12-18T18:20:54.185Z,-0.70
2022-12-18T18:23:23.191Z,-0.80
2022-12-18T18:25:51.246Z,-0.70
2022-12-18T18:28:21.260Z,-0.80
2022-12-18T18:30:49.711Z,-0.80
2022-12-18T18:33:19.296Z,-0.80
2022-12-18T18:35:54.948Z,-0.80
2022-12-18T18:38:23.126Z,-0.80
2022-12-18T18:40:59.146Z,-0.70
2022-12-18T18:43:27.178Z,-0.70
2022-12-18T18:45:57.141Z,-0.70
2022-12-18T18:48:26.890Z,-0.70
2022-12-18T18:50:58.437Z,-0.70
2022-12-18T18:53:26.672Z,-0.70
2022-12-18T18:56:26.092Z,-0.70
2022-12-18T18:58:42.854Z,-0.70
2022-12-18T19:01:14.618Z,-0.70
2022-12-18T19:03:45.193Z,-0.70
2022-12-18T19:06:16.430Z,-0.70
2022-12-18T19:08:46.392Z,-0.70
2022-12-18T19:11:33.149Z,-0.70
2022-12-18T19:14:06.811Z,-0.70
2022-12-18T19:16:36.155Z,-0.70
2022-12-18T19:19:06.142Z,-0.70
2022-12-18T19:21:35.192Z,-0.60
2022-12-18T19:24:03.434Z,-0.70
2022-12-18T19:26:31.549Z,-0.70
2022-12-18T19:29:03.181Z,-0.60
2022-12-18T19:31:35.530Z,-0.60
2022-12-18T19:34:06.746Z,-0.60
2022-12-18T19:36:36.142Z,-0.60
2022-12-18T19:39:10.057Z,-0.60
2022-12-18T19:41:38.273Z,-0.60
2022-12-18T19:44:08.253Z,-0.70
2022-12-18T19:46:37.163Z,-0.60
2022-12-18T19:49:11.806Z,-0.60
2022-12-18T19:51:50.175Z,-0.60
2022-12-18T19:54:18.837Z,-0.60
2022-12-18T19:56:47.014Z,-0.60
2022-12-18T19:59:15.287Z,-0.60
2022-12-18T20:01:43.518Z,-0.60
2022-12-18T20:04:13.039Z,-0.60
2022-12-18T20:06:48.609Z,-0.60
2022-12-18T20:09:17.470Z,-0.60
2022-12-18T20:11:45.897Z,-0.60
2022-12-18T20:14:18.847Z,-0.60
2022-12-18T20:16:52.389Z,-0.60
2022-12-18T20:19:22.661Z,-0.60
2022-12-18T20:21:50.757Z,-0.60
2022-12-18T20:24:18.765Z,-0.60
2022-12-18T20:26:46.863Z,-0.60
2022-12-18T20:29:14.909Z,-0.60
2022-12-18T20:31:43.026Z,-0.60
2022-12-18T20:34:11.126Z,-0.60
2022-12-18T20:36:41.141Z,-0.60
2022-12-18T20:39:11.029Z,-0.50
2022-12-18T20:41:41.324Z,-0.50
2022-12-18T20:44:22.530Z,-0.50
2022-12-18T20:46:53.529Z,-0.50
2022-12-18T20:49:21.633Z,-0.50
2022-12-18T20:51:53.228Z,-0.50
2022-12-18T20:54:21.349Z,-0.50
2022-12-18T20:56:49.612Z,-0.50
2022-12-18T20:59:18.222Z,-0.50
2022-12-18T21:01:48.909Z,-0.50
2022-12-18T21:04:18.437Z,-0.50
2022-12-18T21:06:50.955Z,-0.50
2022-12-18T21:09:21.219Z,-0.50
2022-12-18T21:12:06.873Z,-0.50
2022-12-18T21:14:35.248Z,-0.50
2022-12-18T21:17:03.290Z,-0.50
2022-12-18T21:19:31.471Z,-0.50
2022-12-18T21:21:59.846Z,-0.40
2022-12-18T21:24:32.804Z,-0.50
2022-12-18T21:27:01.773Z,-0.50
2022-12-18T21:29:32.837Z,-0.50
2022-12-18T21:32:01.225Z,-0.50
2022-12-18T21:34:31.801Z,-0.50
2022-12-18T21:37:01.681Z,-0.50
2022-12-18T21:39:31.953Z,-0.50
2022-12-18T21:42:17.707Z,-0.50
2022-12-18T21:44:48.024Z,-0.60
2022-12-18T21:47:22.838Z,-0.60
2022-12-18T21:49:52.799Z,-0.60
2022-12-18T21:52:27.266Z,-0.60
2022-12-18T21:55:08.592Z,-0.60
2022-12-18T21:57:37.737Z,-0.60
2022-12-18T22:00:07.015Z,-0.60
2022-12-18T22:02:40.835Z,-0.60
2022-12-18T22:05:09.895Z,-0.60
2022-12-18T22:07:39.149Z,-0.60
2022-12-18T22:10:09.578Z,-0.60
2022-12-18T22:12:43.618Z,-0.60
2022-12-18T22:15:17.002Z,-0.60
2022-12-18T22:17:50.427Z,-0.60
2022-12-18T22:20:20.250Z,-0.60
2022-12-18T22:22:48.651Z,-0.60
2022-12-18T22:25:18.247Z,-0.60
2022-12-18T22:28:06.911Z,-0.60
2022-12-18T22:30:33.895Z,-0.60
2022-12-18T22:33:02.001Z,-0.60
2022-12-18T22:35:30.017Z,-0.60
2022-12-18T22:37:59.773Z,-0.50
2022-12-18T22:40:29.806Z,-0.50
2022-12-18T22:42:58.131Z,-0.40
2022-12-18T22:45:27.808Z,-0.40
2022-12-18T22:47:56.053Z,-0.40
2022-12-18T22:50:24.002Z,-0.40
2022-12-18T22:52:52.000Z,-0.40
2022-12-18T22:55:20.738Z,-0.40
2022-12-18T22:57:50.817Z,-0.40
2022-12-18T23:00:23.956Z,-0.40
2022-12-18T23:02:59.341Z,-0.30
2022-12-18T23:05:30.828Z,-0.30
2022-12-18T23:07:59.720Z,-0.30
2022-12-18T23:10:29.071Z,-0.30
2022-12-18T23:12:58.451Z,-0.30
2022-12-18T23:15:28.091Z,-0.30
2022-12-18T23:17:58.302Z,-0.20
2022-12-18T23:20:26.743Z,-0.20
2022-12-18T23:22:54.787Z,-0.20
2022-12-18T23:25:22.725Z,-0.10
2022-12-18T23:27:50.702Z,-0.10
2022-12-18T23:30:20.187Z,-0.10
2022-12-18T23:32:48.257Z,-0.10
2022-12-18T23:35:16.981Z,-0.10
2022-12-18T23:38:00.958Z,-0.10
2022-12-18T23:40:30.019Z,0.00
2022-12-18T23:42:58.077Z,-0.10
2022-12-18T23:45:27.769Z,0.00
2022-12-18T23:47:55.769Z,0.00
2022-12-18T23:50:25.455Z,0.10
2022-12-18T23:53:04.848Z,0.10
2022-12-18T23:55:38.428Z,0.10
2022-12-18T23:58:06.465Z,0.10
